Home > Products > Valid Products > TAF

000
FTUS43 KMPX 302324
TAFRWF
TAF
KRWF 302324Z 0100/0124 06010KT P6SM FEW070 OVC120
     FM011500 03009KT P6SM FEW060 SCT250=



000
FTUS43 KMPX 302324
TAFEAU
TAF
KEAU 302324Z 0100/0124 07008KT P6SM BKN070 OVC120
     FM011500 05010KT P6SM SCT060 BKN200
     FM012200 04007KT P6SM SKC=



000
FTUS43 KMPX 302324
TAFMSP
TAF
KMSP 302324Z 0100/0206 06011KT P6SM SCT060 OVC120
     FM011500 03013KT P6SM SCT060 BKN200
     FM012200 02007KT P6SM SKC=



000
FTUS43 KMPX 302324
TAFSTC
TAF
KSTC 302324Z 0100/0124 04014G22KT P6SM BKN250
     FM010100 04009KT P6SM SCT250
     FM011500 03010KT P6SM FEW060
     FM012200 02006KT P6SM SKC=



000
FTUS43 KMPX 302324
TAFAXN
TAF
KAXN 302324Z 0100/0124 07015G22KT P6SM BKN250
     FM010100 06009KT P6SM SCT250
     FM011500 03008KT P6SM SKC=



000
FTUS43 KMPX 302324
TAFRWF
TAF
KRWF 302324Z 0100/0124 06010KT P6SM FEW070 OVC120
     FM011500 03009KT P6SM FEW060 SCT250=



000
FTUS43 KMPX 302324
TAFAXN
TAF
KAXN 302324Z 0100/0124 07015G22KT P6SM BKN250
     FM010100 06009KT P6SM SCT250
     FM011500 03008KT P6SM SKC=



000
FTUS43 KMPX 302324
TAFEAU
TAF
KEAU 302324Z 0100/0124 07008KT P6SM BKN070 OVC120
     FM011500 05010KT P6SM SCT060 BKN200
     FM012200 04007KT P6SM SKC=



000
FTUS43 KMPX 302324
TAFSTC
TAF
KSTC 302324Z 0100/0124 04014G22KT P6SM BKN250
     FM010100 04009KT P6SM SCT250
     FM011500 03010KT P6SM FEW060
     FM012200 02006KT P6SM SKC=



000
FTUS43 KMPX 302324
TAFMSP
TAF
KMSP 302324Z 0100/0206 06011KT P6SM SCT060 OVC120
     FM011500 03013KT P6SM SCT060 BKN200
     FM012200 02007KT P6SM SKC=



000
FTUS43 KMPX 302107 AAA
TAFMSP
TAF AMD
KMSP 302107Z 3021/0124 08017G26KT P6SM SCT050 OVC120
     FM302300 05016G22KT P6SM VCSH BKN045 OVC100
     FM010400 04011KT P6SM BKN040 BKN120
     FM011400 03013G19KT P6SM FEW040 SCT250=



000
FTUS43 KMPX 301916 AAA
TAFRWF
TAF AMD
KRWF 301916Z 3019/0118 07017G25KT P6SM OVC060
     FM302300 06012G20KT P6SM -RA SCT025 OVC040
     FM010400 04009KT P6SM VCSH SCT020 BKN040 OVC100
     FM010900 03010G16KT P6SM FEW045 SCT250=



000
FTUS43 KMPX 301730
TAFRWF
TAF
KRWF 301730Z 3018/0118 05014G21KT P6SM SCT040 OVC250
     FM302100 06012G20KT P6SM VCSH SCT025 BKN050 OVC250
     FM010300 04010KT P6SM SCT020 BKN040 OVC250
     FM011200 03008KT P6SM FEW040 SCT250=



000
FTUS43 KMPX 301730
TAFSTC
TAF
KSTC 301730Z 3018/0118 06014G22KT P6SM SCT050 OVC250
     FM010200 04009KT P6SM BKN250=



000
FTUS43 KMPX 301730
TAFAXN
TAF
KAXN 301730Z 3018/0118 07018G25KT P6SM SCT050 BKN250
     FM010100 06009KT P6SM SCT250=



000
FTUS43 KMPX 301730
TAFMSP
TAF
KMSP 301730Z 3018/0124 06019G26KT P6SM SCT050 BKN120 OVC250
     FM302300 05016G22KT P6SM VCSH BKN045 OVC100
     FM010400 04011KT P6SM BKN040 BKN120
     FM011400 03013G19KT P6SM FEW040 SCT250=



000
FTUS43 KMPX 301730
TAFEAU
TAF
KEAU 301730Z 3018/0118 07015G22KT P6SM SCT050 BKN120 OVC250
     FM010100 06010KT P6SM VCSH BKN045 OVC100
     FM010600 04007KT P6SM SCT040 BKN150
     FM011400 05011G17KT P6SM FEW040 SCT250=



000
FTUS43 KMPX 301455 AAA
TAFMSP
TAF AMD
KMSP 301455Z 3015/0118 07014G20KT P6SM SCT120 OVC250
     FM302200 05016G23KT P6SM VCSH BKN050 OVC120
     FM010200 04014G20KT P6SM SCT050 BKN120
     FM010900 02010KT P6SM SCT250=



000
FTUS43 KMPX 301455 AAA
TAFMSP
TAF AMD
KMSP 301455Z 3015/0118 07014G20KT P6SM SCT120 OVC250
     FM302200 05016G23KT P6SM VCSH BKN050 OVC120
     FM010200 04014G20KT P6SM SCT050 BKN120
     FM010900 02010KT P6SM SCT250=



000
FTUS43 KMPX 301120
TAFEAU
TAF
KEAU 301120Z 3012/0112 04006KT P6SM SKC
     FM301500 07012G21KT P6SM SCT050
     FM010000 05010KT P6SM SCT050 OVC110=



000
FTUS43 KMPX 301120
TAFMSP
TAF
KMSP 301120Z 3012/0118 05008KT P6SM FEW250
     FM301500 06018G25KT P6SM SCT050
     FM010100 04014G22KT P6SM SCT050 BKN110
     FM010900 02010KT P6SM SCT250=



000
FTUS43 KMPX 301120
TAFEAU
TAF
KEAU 301120Z 3012/0112 04006KT P6SM SKC
     FM301500 07012G21KT P6SM SCT050
     FM010000 05010KT P6SM SCT050 OVC110=



000
FTUS43 KMPX 301120
TAFAXN
TAF
KAXN 301120Z 3012/0112 06010KT P6SM SKC
     FM301400 07016G24KT P6SM SCT050 BKN250
     FM010100 05008KT P6SM FEW250=



000
FTUS43 KMPX 301120
TAFRWF
TAF
KRWF 301120Z 3012/0112 06004KT P6SM SKC
     FM301400 07014G22KT P6SM BKN050
     FM010100 04008KT P6SM VCSH BKN050 OVC110=



000
FTUS43 KMPX 301120
TAFMSP
TAF
KMSP 301120Z 3012/0118 05008KT P6SM FEW250
     FM301500 06018G25KT P6SM SCT050
     FM010100 04014G22KT P6SM SCT050 BKN110
     FM010900 02010KT P6SM SCT250=



000
FTUS43 KMPX 301120
TAFSTC
TAF
KSTC 301120Z 3012/0112 05008KT P6SM SKC
     FM301400 05013G22KT P6SM SCT050 BKN250
     FM010200 03008KT P6SM BKN250=



000
FTUS43 KMPX 301120
TAFSTC
TAF
KSTC 301120Z 3012/0112 05008KT P6SM SKC
     FM301400 05013G22KT P6SM SCT050 BKN250
     FM010200 03008KT P6SM BKN250=



000
FTUS43 KMPX 301120
TAFRWF
TAF
KRWF 301120Z 3012/0112 06004KT P6SM SKC
     FM301400 07014G22KT P6SM BKN050
     FM010100 04008KT P6SM VCSH BKN050 OVC110=



000
FTUS43 KMPX 301120
TAFAXN
TAF
KAXN 301120Z 3012/0112 06010KT P6SM SKC
     FM301400 07016G24KT P6SM SCT050 BKN250
     FM010100 05008KT P6SM FEW250=



000
FTUS43 KMPX 300847 AAA
TAFMSP
TAF AMD
KMSP 300847Z 3009/0112 05008KT P6SM BKN250
     FM301200 06012G18KT P6SM BKN250
     FM301600 06016G27KT P6SM SCT050 OVC150
     FM010100 04013KT P6SM SCT050 OVC200=



000
FTUS43 KMPX 300520
TAFSTC
TAF
KSTC 300520Z 3006/0106 05005KT P6SM SKC
     FM301400 05013G22KT P6SM BKN250
     FM010100 03009KT P6SM BKN250=



000
FTUS43 KMPX 300520
TAFMSP
TAF
KMSP 300520Z 3006/0112 09004KT P6SM SKC
      TEMPO 3006/3008 BKN050
     FM301200 06012G18KT P6SM SCT250
     FM301600 06016G27KT P6SM SCT050 OVC150
     FM010100 04013KT P6SM SCT050 OVC200=



000
FTUS43 KMPX 300520
TAFAXN
TAF
KAXN 300520Z 3006/0106 07007KT P6SM SKC
     FM301400 06015G24KT P6SM FEW050 BKN250
     FM010100 05009KT P6SM FEW250=



000
FTUS43 KMPX 300520
TAFEAU
TAF
KEAU 300520Z 3006/0106 VRB04KT P6SM SKC
     FM301200 06008KT P6SM SCT250
     FM301500 07012G21KT P6SM SCT050 OVC150
     FM010000 05010KT P6SM SCT050 OVC150=



000
FTUS43 KMPX 300520
TAFRWF
TAF
KRWF 300520Z 3006/0106 06006KT P6SM SCT250
     FM301400 07013G23KT P6SM BKN050 OVC120
     FM010100 04008KT P6SM BKN050 OVC120=



000
FTUS43 KMPX 300252 AAA
TAFMSP
TAF AMD
KMSP 300252Z 3003/0106 10004KT P6SM FEW250
     FM301200 06012G18KT P6SM SCT250
     FM301600 06018G28KT P6SM BKN050 BKN200
     FM010000 05013KT P6SM SCT050 BKN200=



000
FTUS43 KMPX 292324
TAFSTC
TAF
KSTC 292324Z 3000/3024 05005KT P6SM SKC
     FM301400 05013G22KT P6SM BKN250=



000
FTUS43 KMPX 292324
TAFEAU
TAF
KEAU 292324Z 3000/3024 08004KT P6SM SKC
     FM301200 08009KT P6SM SCT250
     FM301500 07012G20KT P6SM SCT050 BKN200=



000
FTUS43 KMPX 292324
TAFMSP
TAF
KMSP 292324Z 3000/0106 05006KT P6SM FEW250
     FM301200 06012G18KT P6SM SCT250
     FM301600 06018G28KT P6SM BKN050 BKN200
     FM010000 05013KT P6SM SCT050 BKN200=



000
FTUS43 KMPX 292324
TAFAXN
TAF
KAXN 292324Z 3000/3024 07006KT P6SM FEW050
     FM301400 06015G24KT P6SM FEW050 BKN250=



000
FTUS43 KMPX 292324
TAFRWF
TAF
KRWF 292324Z 3000/3024 07006KT P6SM BKN045
     FM301200 07012G20KT P6SM OVC200
     FM301500 07018G30KT P6SM BKN050 OVC200=



000
FTUS43 KMPX 292002 AAA
TAFRWF
TAF AMD
KRWF 292002Z 2920/3018 06008KT P6SM BKN040
     FM300200 10007KT P6SM SCT250
     FM301200 06012G20KT P6SM BKN250
     FM301500 07019G30KT P6SM BKN200=



000
FTUS43 KMPX 292002 AAA
TAFRWF
TAF AMD
KRWF 292002Z 2920/3018 06008KT P6SM BKN040
     FM300200 10007KT P6SM SCT250
     FM301200 06012G20KT P6SM BKN250
     FM301500 07019G30KT P6SM BKN200=



000
FTUS43 KMPX 292002 AAA
TAFAXN
TAF AMD
KAXN 292002Z 2920/3018 09009KT P6SM SCT050
     FM301400 07011G20KT P6SM SCT250=



000
FTUS43 KMPX 292001 AAA
TAFMSP
TAF AMD
KMSP 292001Z 2920/3024 04009KT P6SM FEW050
     FM292200 05008KT P6SM SKC
     FM301200 06012G18KT P6SM SCT250
     FM301600 07019G28KT P6SM BKN200=



000
FTUS43 KMPX 291735
TAFAXN
TAF
KAXN 291735Z 2918/3018 02005KT P6SM FEW040
     FM301400 07011G20KT P6SM SCT250=



000
FTUS43 KMPX 291735
TAFEAU
TAF
KEAU 291735Z 2918/3018 06006KT P6SM SCT035
     FM300200 VRB03KT P6SM SKC
     FM301200 06012G18KT P6SM SCT250=



000
FTUS43 KMPX 291735
TAFRWF
TAF
KRWF 291735Z 2918/3018 04008KT P6SM BKN035
      TEMPO 2918/2920 BKN025
     FM300200 10007KT P6SM SCT250
     FM301200 06012G20KT P6SM BKN250
     FM301500 07019G30KT P6SM BKN200=



000
FTUS43 KMPX 291735
TAFMSP
TAF
KMSP 291735Z 2918/3024 02009KT P6SM FEW030
     FM292200 05008KT P6SM SKC
     FM301200 06012G18KT P6SM SCT250
     FM301600 07019G28KT P6SM BKN200=



000
FTUS43 KMPX 291735
TAFSTC
TAF
KSTC 291735Z 2918/3018 04009KT P6SM SCT050
     FM301400 06011G18KT P6SM SCT250=



000
FTUS43 KMPX 291540 AAC
TAFRWF
TAF AMD
KRWF 291540Z 2916/3012 05005KT P6SM BKN020
     FM291800 07008KT P6SM BKN035
     FM300200 10007KT P6SM SCT250=



000
FTUS43 KMPX 291525 AAB
TAFRWF
TAF AMD
KRWF 291525Z 2915/3012 06005KT P6SM SCT016
     FM291800 07008KT P6SM BKN050
     FM300200 07008KT P6SM SCT250=



000
FTUS43 KMPX 291502 AAB
TAFEAU
TAF AMD
KEAU 291502Z 2915/3012 VRB02KT P6SM BKN020 OVC050
     FM291800 05006KT P6SM SCT025 BKN050
     FM300200 VRB03KT P6SM SCT250=



000
FTUS43 KMPX 291446 AAA
TAFEAU
TAF AMD
KEAU 291446Z 2915/3012 VRB02KT P6SM BKN016 OVC050
     FM291800 05006KT P6SM SCT025 BKN050
     FM300200 VRB03KT P6SM SCT250=



000
FTUS43 KMPX 291445 AAA
TAFRWF
TAF AMD
KRWF 291445Z 2915/3012 06005KT P6SM BKN008
     FM291530 06007KT P6SM BKN015
      TEMPO 2916/2918 SCT015 BKN040
     FM291800 07008KT P6SM BKN050
     FM300200 07008KT P6SM SCT250=



000
FTUS43 KMPX 291440 AAA
TAFMSP
TAF AMD
KMSP 291440Z 2915/3018 01009KT P6SM FEW015 SCT020 SCT250
     FM292200 05007KT P6SM SCT100 BKN250
     FM301300 06012G18KT P6SM SCT250=



000
FTUS43 KMPX 291243 AAB
TAFAXN
TAF AMD
KAXN 291243Z 2913/3012 VRB03KT P6SM FEW002
     FM291500 05008KT P6SM SCT040=



000
FTUS43 KMPX 291243 AAB
TAFAXN
TAF AMD
KAXN 291243Z 2913/3012 VRB03KT P6SM FEW002
     FM291500 05008KT P6SM SCT040=



000
FTUS43 KMPX 291241 AAA
TAFSTC
TAF AMD
KSTC 291241Z 2913/3012 VRB02KT 6SM BR SCT005
     FM291500 04006KT P6SM SCT050=



000
FTUS43 KMPX 291241 AAA
TAFSTC
TAF AMD
KSTC 291241Z 2913/3012 VRB02KT 6SM BR SCT005
     FM291500 04006KT P6SM SCT050=



000
FTUS43 KMPX 291152 AAA
TAFAXN
TAF AMD
KAXN 291152Z 2912/3012 02004KT 4SM BR SCT002
     FM291500 05008KT P6SM SCT050=



000
FTUS43 KMPX 291152 CCA
TAFSTC
TAF COR
KSTC 291152Z 2912/3012 00000KT 1SM BR SCT002
     FM291300 VRB02KT 4SM BR SCT005
     FM291500 04006KT P6SM SCT050=



000
FTUS43 KMPX 291152 CCA
TAFSTC
TAF COR
KSTC 291152Z 2912/3012 00000KT 1SM BR SCT002
     FM291300 VRB02KT 4SM BR SCT005
     FM291500 04006KT P6SM SCT050=



000
FTUS43 KMPX 291120
TAFSTC
TAF
KSTC 291120Z 2912/3012 00000KT 1SM BR VV004
     FM291300 VRB02KT 4SM BR SCT005
     FM291500 04006KT P6SM SCT050=



000
FTUS43 KMPX 291120
TAFRWF
TAF
KRWF 291120Z 2912/3012 03003KT P6SM BKN012 BKN040
     FM291500 02006KT P6SM BKN025
     FM291800 05010KT P6SM BKN035
     FM300200 07008KT P6SM SCT250=



000
FTUS43 KMPX 291120
TAFMSP
TAF
KMSP 291120Z 2912/3018 02004KT 3SM BR SCT012 BKN025 BKN040
     FM291300 01004KT 6SM BR SCT015 BKN025
     FM291500 03007KT P6SM SCT025 BKN040
     FM300000 04006KT P6SM SCT250=



000
FTUS43 KMPX 291120
TAFAXN
TAF
KAXN 291120Z 2912/3012 00000KT 1SM BR VV002
     FM291300 02004KT 4SM BR SCT002
     FM291500 05008KT P6SM SCT050=



000
FTUS43 KMPX 291120
TAFSTC
TAF
KSTC 291120Z 2912/3012 00000KT 1SM BR VV004
     FM291300 VRB02KT 4SM BR SCT005
     FM291500 04006KT P6SM SCT050=



000
FTUS43 KMPX 291120
TAFEAU
TAF
KEAU 291120Z 2912/3012 VRB02KT P6SM SCT012 OVC020
     FM291700 05006KT P6SM SCT025 BKN035
     FM300200 VRB03KT P6SM SCT250=



000
FTUS43 KMPX 291120
TAFRWF
TAF
KRWF 291120Z 2912/3012 03003KT P6SM BKN012 BKN040
     FM291500 02006KT P6SM BKN025
     FM291800 05010KT P6SM BKN035
     FM300200 07008KT P6SM SCT250=



000
FTUS43 KMPX 291120
TAFMSP
TAF
KMSP 291120Z 2912/3018 02004KT 3SM BR SCT012 BKN025 BKN040
     FM291300 01004KT 6SM BR SCT015 BKN025
     FM291500 03007KT P6SM SCT025 BKN040
     FM300000 04006KT P6SM SCT250=



000
FTUS43 KMPX 291120
TAFEAU
TAF
KEAU 291120Z 2912/3012 VRB02KT P6SM SCT012 OVC020
     FM291700 05006KT P6SM SCT025 BKN035
     FM300200 VRB03KT P6SM SCT250=



000
FTUS43 KMPX 290926 AAA
TAFSTC
TAF AMD
KSTC 290926Z 2909/3006 00000KT 6SM BR BKN110
      TEMPO 2909/2913 1SM BR SCT004
     FM291500 06006KT P6SM SCT050 BKN100=



000
FTUS43 KMPX 290925 AAA
TAFAXN
TAF AMD
KAXN 290925Z 2909/3006 00000KT 6SM BR SKC
      TEMPO 2909/2913 1SM BR FEW004
     FM291500 04008KT P6SM BKN120=



000
FTUS43 KMPX 290852 AAA
TAFMSP
TAF AMD
KMSP 290852Z 2909/3012 03003KT P6SM SCT012 BKN040
      TEMPO 2911/2913 3SM BR
     FM291400 05006KT P6SM SCT015 BKN100=



000
FTUS43 KMPX 290852 AAA
TAFMSP
TAF AMD
KMSP 290852Z 2909/3012 03003KT P6SM SCT012 BKN040
      TEMPO 2911/2913 3SM BR
     FM291400 05006KT P6SM SCT015 BKN100=



000
FTUS43 KMPX 290539 AAA
TAFEAU
TAF AMD
KEAU 290539Z 2906/3006 VRB02KT P6SM VCSH SCT025 BKN035
     FM291000 03004KT 3SM BR SCT040 BKN060
     FM291300 05006KT P6SM BKN100=



000
FTUS43 KMPX 290537 CCA
TAFMSP
TAF COR
KMSP 290537Z 2906/3012 10004KT P6SM SCT025 BKN040
     FM290900 03003KT 6SM BR OVC040
      TEMPO 2910/2913 3SM BR
     FM291400 05006KT P6SM SCT040 BKN100=



000
FTUS43 KMPX 290520
TAFMSP
TAF
KMSP 290520Z 2906/3012 07007KT 6SM -RA BR SCT015 OVC025
      TEMPO 2906/2909 4SM -RA BR BKN015
     FM290900 03003KT P6SM OVC040
     FM291400 05006KT P6SM SCT040 BKN100=



000
FTUS43 KMPX 290520
TAFAXN
TAF
KAXN 290520Z 2906/3006 10007KT P6SM SCT040 OVC060
     FM291000 05004KT P6SM SCT060 OVC100
     FM291500 07008KT P6SM BKN120=



000
FTUS43 KMPX 290520
TAFSTC
TAF
KSTC 290520Z 2906/3006 04003KT P6SM BKN050
     FM291500 06006KT P6SM SCT050 BKN100=



000
FTUS43 KMPX 290520
TAFRWF
TAF
KRWF 290520Z 2906/3006 03003KT P6SM BKN040
     FM291200 05005KT P6SM SCT040 BKN080
     FM291800 08009KT P6SM BKN100=



000
FTUS43 KMPX 290520
TAFEAU
TAF
KEAU 290520Z 2906/3006 12010KT 6SM -RA BR SCT015 BKN030
      TEMPO 2906/2910 BKN015
     FM291000 03004KT P6SM SCT040 BKN060
     FM291500 05007KT P6SM BKN100=



000
FTUS43 KMPX 290255 AAB
TAFMSP
TAF AMD
KMSP 290255Z 2903/3006 07007KT 6SM -RA BR SCT015 OVC025
      TEMPO 2903/2906 4SM -RA BR BKN015
     FM290600 04004KT P6SM OVC025
     FM290800 03003KT P6SM OVC040
     FM291400 05006KT P6SM SCT040 BKN100=



000
FTUS43 KMPX 290255 AAB
TAFMSP
TAF AMD
KMSP 290255Z 2903/3006 07007KT 6SM -RA BR SCT015 OVC025
      TEMPO 2903/2906 4SM -RA BR BKN015
     FM290600 04004KT P6SM OVC025
     FM290800 03003KT P6SM OVC040
     FM291400 05006KT P6SM SCT040 BKN100=



000
FTUS43 KMPX 290101 AAA
TAFEAU
TAF AMD
KEAU 290101Z 2901/2924 12010KT 6SM -RA BR BKN030
     FM290600 03004KT P6SM SCT040 BKN060
     FM291500 05007KT P6SM BKN100=



000
FTUS43 KMPX 290100 AAA
TAFMSP
TAF AMD
KMSP 290100Z 2901/3006 04007KT 6SM -RA BR SCT015 OVC025
      TEMPO 2901/2904 4SM -RA BR BKN015
     FM290400 04004KT P6SM OVC025
     FM290800 03003KT P6SM OVC040
     FM291400 05006KT P6SM SCT040 BKN100=



000
FTUS43 KMPX 282339
TAFEAU
TAF
KEAU 282339Z 2900/2924 05007KT 6SM -RA BR BKN035
     FM290600 03004KT P6SM SCT040 BKN060
     FM291500 05007KT P6SM BKN100=



000
FTUS43 KMPX 282339
TAFAXN
TAF
KAXN 282339Z 2900/2924 10007KT P6SM SCT040 OVC060
     FM290600 05004KT P6SM SCT050 OVC100
     FM291500 07008KT P6SM BKN120=



000
FTUS43 KMPX 282339
TAFMSP
TAF
KMSP 282339Z 2900/3006 05007KT 6SM -RA BR SCT020 OVC035
      TEMPO 2900/2904 4SM -RA BR BKN020
     FM290400 04004KT P6SM OVC025
     FM290800 03003KT P6SM OVC040
     FM291400 05006KT P6SM SCT040 BKN100=



000
FTUS43 KMPX 282339
TAFSTC
TAF
KSTC 282339Z 2900/2924 07004KT 6SM -RA BR OVC040
      TEMPO 2900/2903 4SM -RA BR BKN025
     FM290300 04003KT P6SM BKN050
     FM291500 06006KT P6SM SCT050 BKN100=



000
FTUS43 KMPX 282339
TAFRWF
TAF
KRWF 282339Z 2900/2924 05006KT P6SM OVC015
     FM290300 04005KT P6SM BKN020
     FM290600 03003KT P6SM BKN040
     FM291200 05005KT P6SM SCT040 BKN080
     FM291800 08009KT P6SM BKN100=



000
FTUS43 KMPX 282339
TAFMSP
TAF
KMSP 282339Z 2900/3006 05007KT 6SM -RA BR SCT020 OVC035
      TEMPO 2900/2904 4SM -RA BR BKN020
     FM290400 04004KT P6SM OVC025
     FM290800 03003KT P6SM OVC040
     FM291400 05006KT P6SM SCT040 BKN100=



000
FTUS43 KMPX 282339
TAFSTC
TAF
KSTC 282339Z 2900/2924 07004KT 6SM -RA BR OVC040
      TEMPO 2900/2903 4SM -RA BR BKN025
     FM290300 04003KT P6SM BKN050
     FM291500 06006KT P6SM SCT050 BKN100=



000
FTUS43 KMPX 282339
TAFRWF
TAF
KRWF 282339Z 2900/2924 05006KT P6SM OVC015
     FM290300 04005KT P6SM BKN020
     FM290600 03003KT P6SM BKN040
     FM291200 05005KT P6SM SCT040 BKN080
     FM291800 08009KT P6SM BKN100=



000
FTUS43 KMPX 282339
TAFEAU
TAF
KEAU 282339Z 2900/2924 05007KT 6SM -RA BR BKN035
     FM290600 03004KT P6SM SCT040 BKN060
     FM291500 05007KT P6SM BKN100=



000
FTUS43 KMPX 282339
TAFAXN
TAF
KAXN 282339Z 2900/2924 10007KT P6SM SCT040 OVC060
     FM290600 05004KT P6SM SCT050 OVC100
     FM291500 07008KT P6SM BKN120=



000
FTUS43 KMPX 282059 AAA
TAFMSP
TAF AMD
KMSP 282059Z 2821/2924 06013G20KT P6SM -SHRA BKN022
     FM290200 04008KT 6SM -RA BR OVC040
     FM290600 02004KT P6SM BKN050 OVC100
     FM291800 06006KT P6SM BKN100=



000
FTUS43 KMPX 281945 AAA
TAFRWF
TAF AMD
KRWF 281945Z 2820/2918 05009KT P6SM -SHRA SCT009 OVC012
     FM290000 05009KT P6SM BKN020 OVC040
     FM290400 03007KT P6SM SCT040 OVC080=



000
FTUS43 KMPX 281847 AAA
TAFSTC
TAF AMD
KSTC 281847Z 2819/2918 08009KT P6SM -RA SCT025 BKN040 OVC060
      TEMPO 2819/2821 BKN025
     FM290200 04004KT P6SM VCSH BKN040 OVC080
     FM290600 03005KT P6SM SCT050 BKN100=



000
FTUS43 KMPX 281736
TAFEAU
TAF
KEAU 281736Z 2818/2918 06010KT P6SM -RA OVC045
     FM282000 05008KT 6SM -SHRA BR OVC050
     FM290600 03004KT P6SM SCT050 BKN100=



000
FTUS43 KMPX 281736
TAFRWF
TAF
KRWF 281736Z 2818/2918 05009KT P6SM -SHRA SCT009 OVC012
     FM282000 05009KT P6SM BKN020 OVC040
     FM290400 03007KT P6SM SCT040 OVC080=



000
FTUS43 KMPX 281736
TAFAXN
TAF
KAXN 281736Z 2818/2918 06010KT P6SM VCSH FEW030 OVC060
     FM290200 07008KT P6SM SCT050 OVC100=



000
FTUS43 KMPX 281736
TAFMSP
TAF
KMSP 281736Z 2818/2924 06012KT P6SM -SHRA OVC035
     FM290100 04006KT 6SM -RA BR OVC040
     FM290600 02004KT P6SM BKN050 OVC100
     FM291800 06006KT P6SM BKN100=



000
FTUS43 KMPX 281736
TAFSTC
TAF
KSTC 281736Z 2818/2918 05010G19KT P6SM -RA FEW025 BKN040 OVC060
     FM290200 04004KT P6SM VCSH BKN040 OVC080
     FM290600 03005KT P6SM SCT050 BKN100=



000
FTUS43 KMPX 281736
TAFAXN
TAF
KAXN 281736Z 2818/2918 06010KT P6SM VCSH FEW030 OVC060
     FM290200 07008KT P6SM SCT050 OVC100=



000
FTUS43 KMPX 281736
TAFMSP
TAF
KMSP 281736Z 2818/2924 06012KT P6SM -SHRA OVC035
     FM290100 04006KT 6SM -RA BR OVC040
     FM290600 02004KT P6SM BKN050 OVC100
     FM291800 06006KT P6SM BKN100=



000
FTUS43 KMPX 281736
TAFEAU
TAF
KEAU 281736Z 2818/2918 06010KT P6SM -RA OVC045
     FM282000 05008KT 6SM -SHRA BR OVC050
     FM290600 03004KT P6SM SCT050 BKN100=



000
FTUS43 KMPX 281736
TAFRWF
TAF
KRWF 281736Z 2818/2918 05009KT P6SM -SHRA SCT009 OVC012
     FM282000 05009KT P6SM BKN020 OVC040
     FM290400 03007KT P6SM SCT040 OVC080=



000
FTUS43 KMPX 281736
TAFSTC
TAF
KSTC 281736Z 2818/2918 05010G19KT P6SM -RA FEW025 BKN040 OVC060
     FM290200 04004KT P6SM VCSH BKN040 OVC080
     FM290600 03005KT P6SM SCT050 BKN100=



000
FTUS43 KMPX 281736 CCA
TAFSTC
TAF COR
KSTC 281736Z 2818/2918 07010KT P6SM -RA FEW025 BKN040 OVC060
     FM290200 04004KT P6SM VCSH BKN040 OVC080
     FM290600 03005KT P6SM SCT050 BKN100=



000
FTUS43 KMPX 281736 CCA
TAFSTC
TAF COR
KSTC 281736Z 2818/2918 07010KT P6SM -RA FEW025 BKN040 OVC060
     FM290200 04004KT P6SM VCSH BKN040 OVC080
     FM290600 03005KT P6SM SCT050 BKN100=



000
FTUS43 KMPX 281524 AAA
TAFAXN
TAF AMD
KAXN 281524Z 2815/2912 06010KT P6SM VCSH BKN040 OVC080
     FM290200 07005KT P6SM SCT040 BKN080=



000
FTUS43 KMPX 281524 AAA
TAFAXN
TAF AMD
KAXN 281524Z 2815/2912 06010KT P6SM VCSH BKN040 OVC080
     FM290200 07005KT P6SM SCT040 BKN080=



000
FTUS43 KMPX 281454 AAA
TAFMSP
TAF AMD
KMSP 281454Z 2815/2918 06011G19KT P6SM -RA BKN025 OVC040
     FM282100 05009KT P6SM VCSH SCT025 OVC040
     FM290200 04006KT P6SM SCT025 OVC040
     FM291200 02005KT P6SM BKN040 OVC080=



000
FTUS43 KMPX 281303 AAA
TAFEAU
TAF AMD
KEAU 281303Z 2813/2912 07009KT P6SM VCSH OVC040
      TEMPO 2813/2816 3SM -SHRA
     FM282000 05008KT P6SM VCSH OVC050
     FM290400 03004KT P6SM SCT025 OVC040=



000
FTUS43 KMPX 281303 AAA
TAFEAU
TAF AMD
KEAU 281303Z 2813/2912 07009KT P6SM VCSH OVC040
      TEMPO 2813/2816 3SM -SHRA
     FM282000 05008KT P6SM VCSH OVC050
     FM290400 03004KT P6SM SCT025 OVC040=



000
FTUS43 KMPX 281301 AAA
TAFRWF
TAF AMD
KRWF 281301Z 2813/2912 05011KT 6SM -RA BR SCT008 OVC015
     FM282100 05009KT P6SM BKN015 OVC040
     FM290400 03005KT P6SM SCT025 OVC040=



000
FTUS43 KMPX 281252 AAA
TAFSTC
TAF AMD
KSTC 281252Z 2813/2912 05009KT P6SM VCSH SCT025 OVC040
      TEMPO 2813/2816 6SM -RA BR OVC040
     FM281700 05010G19KT P6SM VCSH OVC040
     FM290200 04004KT P6SM BKN040 OVC080
     FM290600 03002KT P6SM SCT040 BKN080=



000
FTUS43 KMPX 281120
TAFMSP
TAF
KMSP 281120Z 2812/2918 05011G19KT P6SM -RA OVC035
      TEMPO 2812/2816 5SM -RA BR OVC025
     FM281600 06011G19KT P6SM -RA BKN025 OVC040
     FM282100 05009KT P6SM VCSH SCT025 OVC040
     FM290200 04006KT P6SM SCT025 OVC040
     FM291200 02005KT P6SM BKN040 OVC080=



000
FTUS43 KMPX 281120
TAFEAU
TAF
KEAU 281120Z 2812/2912 07012KT P6SM VCSH OVC040
      TEMPO 2812/2816 -SHRA SCT025 OVC040
     FM282000 05008KT P6SM VCSH OVC050
     FM290400 03004KT P6SM SCT025 OVC040=



000
FTUS43 KMPX 281120
TAFSTC
TAF
KSTC 281120Z 2812/2912 06012KT P6SM VCSH SCT025 OVC040
      TEMPO 2812/2816 6SM -RA BR BKN025 OVC040
     FM281700 05010G19KT P6SM VCSH OVC040
     FM290200 04004KT P6SM BKN040 OVC080
     FM290600 03002KT P6SM SCT040 BKN080=



000
FTUS43 KMPX 281120
TAFRWF
TAF
KRWF 281120Z 2812/2912 06011G18KT 4SM -RA BR BKN008 OVC015
     FM281600 05011KT 6SM -RA BR SCT008 OVC015
     FM282100 05009KT P6SM BKN015 OVC040
     FM290400 03005KT P6SM SCT025 OVC040=



000
FTUS43 KMPX 281120
TAFAXN
TAF
KAXN 281120Z 2812/2912 06012KT P6SM SCT025 OVC040
      TEMPO 2813/2816 5SM -RASN BKN025 OVC040
     FM281700 06010KT P6SM BKN040 OVC080
     FM290200 07005KT P6SM SCT040 BKN080=



000
FTUS43 KMPX 280851 AAA
TAFMSP
TAF AMD
KMSP 280851Z 2809/2912 06011G20KT P6SM -RA OVC035
      TEMPO 2809/2812 5SM -RA BR OVC025
     FM281500 06011G19KT P6SM -SHRA OVC050
     FM282000 05008KT P6SM OVC070
     FM290600 03005KT P6SM OVC120=



000
FTUS43 KMPX 280847 AAA
TAFAXN
TAF AMD
KAXN 280847Z 2809/2906 07010KT 6SM -RASN BR SCT020 OVC035
      TEMPO 2809/2811 3SM -SN BR OVC025
     FM281200 06010KT P6SM SCT025 OVC040
     FM281900 07009KT P6SM VCSH BKN040 OVC090
     FM290200 07004KT P6SM SCT050 BKN100=



000
FTUS43 KMPX 280847 AAA
TAFAXN
TAF AMD
KAXN 280847Z 2809/2906 07010KT 6SM -RASN BR SCT020 OVC035
      TEMPO 2809/2811 3SM -SN BR OVC025
     FM281200 06010KT P6SM SCT025 OVC040
     FM281900 07009KT P6SM VCSH BKN040 OVC090
     FM290200 07004KT P6SM SCT050 BKN100=



000
FTUS43 KMPX 280621 AAA
TAFRWF
TAF AMD
KRWF 280621Z 2806/2906 08011G20KT 3SM -SHRA BR BKN006 OVC015
     FM280800 06012G18KT 4SM -RA BR BKN008 OVC015
     FM281300 06010KT 6SM -SHRA BR OVC020
     FM282000 05009KT P6SM OVC040
     FM290200 03005KT P6SM OVC080=



000
FTUS43 KMPX 280520
TAFMSP
TAF
KMSP 280520Z 2806/2912 08012KT 6SM -SHRA OVC035
     FM280800 06012KT 5SM -RA BR OVC040
     FM281500 06010KT P6SM -SHRA OVC050
     FM282000 05008KT P6SM OVC070
     FM290600 03005KT P6SM OVC120=



000
FTUS43 KMPX 280520
TAFSTC
TAF
KSTC 280520Z 2806/2906 06011KT P6SM OVC060
     FM280800 06012KT 6SM -RA BR OVC060
     FM281500 06008KT P6SM OVC090
     FM290200 04004KT P6SM OVC120=



000
FTUS43 KMPX 280520
TAFAXN
TAF
KAXN 280520Z 2806/2906 07013KT P6SM OVC050
     FM280800 07010KT 6SM -RA BR SCT040 OVC090
     FM281400 07009KT P6SM OVC120
     FM290200 07004KT P6SM BKN150=



000
FTUS43 KMPX 280520
TAFEAU
TAF
KEAU 280520Z 2806/2906 08011KT P6SM OVC050
     FM280800 07010KT 6SM -SHRA BR OVC050
     FM282000 06008KT P6SM OVC090
     FM290300 04004KT P6SM OVC120=



000
FTUS43 KMPX 280520
TAFRWF
TAF
KRWF 280520Z 2806/2906 08013G20KT 6SM -SHRA OVC015
     FM280800 06012G18KT 4SM -RA BR OVC025
     FM281400 06010KT 6SM -SHRA BR OVC020
     FM282000 05009KT P6SM OVC040
     FM290200 03005KT P6SM OVC080=



000
FTUS43 KMPX 280256 AAA
TAFRWF
TAF AMD
KRWF 280256Z 2803/2824 08013G20KT 6SM -SHRA OVC015
     FM280800 06012G18KT 4SM -RA BR OVC025
     FM281400 06010KT 6SM -SHRA BR OVC020
     FM282000 05009KT P6SM OVC040=



000
FTUS43 KMPX 280255 AAA
TAFMSP
TAF AMD
KMSP 280255Z 2803/2906 08016G25KT 6SM -SHRA OVC040
     FM280800 06012KT 5SM -RA BR OVC040
     FM281500 06010KT P6SM -SHRA OVC050
     FM282000 05008KT P6SM OVC070=



    US Dept of Commerce
    National Oceanic and Atmospheric Administration
    National Weather Service
    1325 East West Highway
    Silver Spring, MD 20910
    Page Author: NWS Internet Services Team
Disclaimer
Information Quality
Credits
Glossary
Privacy Policy
Freedom of Information Act (FOIA)
About Us
Career Opportunities